sensor_id;sensor_type;location;lat;lon;timestamp;temperature;humidity
25906;DHT22;13713;52.552;13.204;2023-05-02T00:02:10;17.20;55.10
25906;DHT22;13713;52.552;13.204;2023-05-02T00:04:36;17.30;55.10
25906;DHT22;13713;52.552;13.204;2023-05-02T00:07:02;17.20;55.10
25906;DHT22;13713;52.552;13.204;2023-05-02T00:09:28;17.30;55.10
25906;DHT22;13713;52.552;13.204;2023-05-02T00:11:54;17.30;55.10
25906;DHT22;13713;52.552;13.204;2023-05-02T00:14:20;17.30;55.20
25906;DHT22;13713;52.552;13.204;2023-05-02T00:16:46;17.30;55.20
25906;DHT22;13713;52.552;13.204;2023-05-02T00:19:11;17.20;55.10
25906;DHT22;13713;52.552;13.204;2023-05-02T00:21:37;17.30;55.20
25906;DHT22;13713;52.552;13.204;2023-05-02T00:24:03;17.20;55.20
25906;DHT22;13713;52.552;13.204;2023-05-02T00:26:28;17.30;55.20
25906;DHT22;13713;52.552;13.204;2023-05-02T00:28:54;17.20;55.20
25906;DHT22;13713;52.552;13.204;2023-05-02T00:31:20;17.20;55.20
25906;DHT22;13713;52.552;13.204;2023-05-02T00:33:46;17.30;55.20
25906;DHT22;13713;52.552;13.204;2023-05-02T00:36:18;17.20;55.20
25906;DHT22;13713;52.552;13.204;2023-05-02T00:38:44;17.30;55.20
25906;DHT22;13713;52.552;13.204;2023-05-02T00:41:10;17.20;55.20
25906;DHT22;13713;52.552;13.204;2023-05-02T00:43:36;17.20;55.20
25906;DHT22;13713;52.552;13.204;2023-05-02T00:46:04;17.30;55.20
25906;DHT22;13713;52.552;13.204;2023-05-02T00:48:30;17.20;55.20
25906;DHT22;13713;52.552;13.204;2023-05-02T00:50:57;17.30;55.20
25906;DHT22;13713;52.552;13.204;2023-05-02T00:53:23;17.20;55.20
25906;DHT22;13713;52.552;13.204;2023-05-02T00:55:49;17.20;55.20
25906;DHT22;13713;52.552;13.204;2023-05-02T00:58:17;17.20;55.20
25906;DHT22;13713;52.552;13.204;2023-05-02T01:03:53;17.20;55.20
25906;DHT22;13713;52.552;13.204;2023-05-02T01:12:42;17.20;55.30
25906;DHT22;13713;52.552;13.204;2023-05-02T01:15:14;17.20;55.30
25906;DHT22;13713;52.552;13.204;2023-05-02T01:17:41;17.20;55.30
25906;DHT22;13713;52.552;13.204;2023-05-02T01:20:11;17.20;55.30
25906;DHT22;13713;52.552;13.204;2023-05-02T01:22:38;17.20;55.30
25906;DHT22;13713;52.552;13.204;2023-05-02T01:25:32;17.20;55.30
25906;DHT22;13713;52.552;13.204;2023-05-02T01:30:50;17.20;55.30
25906;DHT22;13713;52.552;13.204;2023-05-02T01:33:18;17.20;55.30
25906;DHT22;13713;52.552;13.204;2023-05-02T01:35:49;17.20;55.30
25906;DHT22;13713;52.552;13.204;2023-05-02T01:38:17;17.20;55.30
25906;DHT22;13713;52.552;13.204;2023-05-02T01:40:44;17.20;55.30
25906;DHT22;13713;52.552;13.204;2023-05-02T01:43:12;17.20;55.30
25906;DHT22;13713;52.552;13.204;2023-05-02T01:45:40;17.20;55.90
25906;DHT22;13713;52.552;13.204;2023-05-02T01:48:07;17.20;55.30
25906;DHT22;13713;52.552;13.204;2023-05-02T01:50:33;17.20;55.30
25906;DHT22;13713;52.552;13.204;2023-05-02T01:53:02;17.20;55.30
25906;DHT22;13713;52.552;13.204;2023-05-02T01:55:29;17.20;55.30
25906;DHT22;13713;52.552;13.204;2023-05-02T01:57:58;17.20;55.30
25906;DHT22;13713;52.552;13.204;2023-05-02T02:00:25;17.20;55.40
25906;DHT22;13713;52.552;13.204;2023-05-02T02:02:56;17.20;55.90
25906;DHT22;13713;52.552;13.204;2023-05-02T02:05:23;17.20;55.30
25906;DHT22;13713;52.552;13.204;2023-05-02T02:07:50;17.20;55.30
25906;DHT22;13713;52.552;13.204;2023-05-02T02:10:16;17.20;55.30
25906;DHT22;13713;52.552;13.204;2023-05-02T02:12:52;17.20;55.30
25906;DHT22;13713;52.552;13.204;2023-05-02T02:15:26;17.10;55.30
25906;DHT22;13713;52.552;13.204;2023-05-02T02:20:27;17.20;55.40
25906;DHT22;13713;52.552;13.204;2023-05-02T02:22:55;17.20;55.40
25906;DHT22;13713;52.552;13.204;2023-05-02T02:25:22;17.20;55.40
25906;DHT22;13713;52.552;13.204;2023-05-02T02:27:49;17.20;55.40
25906;DHT22;13713;52.552;13.204;2023-05-02T02:30:15;17.20;55.40
25906;DHT22;13713;52.552;13.204;2023-05-02T02:32:41;17.20;55.40
25906;DHT22;13713;52.552;13.204;2023-05-02T02:35:07;17.20;55.50
25906;DHT22;13713;52.552;13.204;2023-05-02T02:40:28;17.20;55.40
25906;DHT22;13713;52.552;13.204;2023-05-02T02:43:07;17.20;55.50
25906;DHT22;13713;52.552;13.204;2023-05-02T02:51:19;17.20;55.50
25906;DHT22;13713;52.552;13.204;2023-05-02T02:54:50;17.20;55.50
25906;DHT22;13713;52.552;13.204;2023-05-02T02:57:02;17.20;55.50
25906;DHT22;13713;52.552;13.204;2023-05-02T02:59:38;17.20;55.50
25906;DHT22;13713;52.552;13.204;2023-05-02T03:02:12;17.10;55.50
25906;DHT22;13713;52.552;13.204;2023-05-02T03:04:43;17.10;55.40
25906;DHT22;13713;52.552;13.204;2023-05-02T03:07:10;17.10;55.50
25906;DHT22;13713;52.552;13.204;2023-05-02T03:09:46;17.10;55.50
25906;DHT22;13713;52.552;13.204;2023-05-02T03:12:18;17.20;55.60
25906;DHT22;13713;52.552;13.204;2023-05-02T03:14:44;17.10;55.50
25906;DHT22;13713;52.552;13.204;2023-05-02T03:17:10;17.10;55.50
25906;DHT22;13713;52.552;13.204;2023-05-02T03:19:36;17.20;55.60
25906;DHT22;13713;52.552;13.204;2023-05-02T03:22:04;17.10;55.50
25906;DHT22;13713;52.552;13.204;2023-05-02T03:24:30;17.10;55.50
25906;DHT22;13713;52.552;13.204;2023-05-02T03:26:57;17.20;55.60
25906;DHT22;13713;52.552;13.204;2023-05-02T03:29:26;17.20;55.60
25906;DHT22;13713;52.552;13.204;2023-05-02T03:31:53;17.20;55.60
25906;DHT22;13713;52.552;13.204;2023-05-02T03:34:20;17.20;55.60
25906;DHT22;13713;52.552;13.204;2023-05-02T03:36:47;17.20;55.60
25906;DHT22;13713;52.552;13.204;2023-05-02T03:39:14;17.20;55.60
25906;DHT22;13713;52.552;13.204;2023-05-02T03:41:40;17.20;55.60
25906;DHT22;13713;52.552;13.204;2023-05-02T03:44:10;17.20;55.60
25906;DHT22;13713;52.552;13.204;2023-05-02T03:46:36;17.20;55.60
25906;DHT22;13713;52.552;13.204;2023-05-02T03:49:05;17.20;55.60
25906;DHT22;13713;52.552;13.204;2023-05-02T03:51:31;17.10;55.50
25906;DHT22;13713;52.552;13.204;2023-05-02T03:53:59;17.20;55.60
25906;DHT22;13713;52.552;13.204;2023-05-02T03:56:26;17.20;55.60
25906;DHT22;13713;52.552;13.204;2023-05-02T03:59:13;17.20;55.60
25906;DHT22;13713;52.552;13.204;2023-05-02T04:01:39;17.20;55.70
25906;DHT22;13713;52.552;13.204;2023-05-02T04:04:06;17.20;55.70
25906;DHT22;13713;52.552;13.204;2023-05-02T04:06:37;17.20;55.70
25906;DHT22;13713;52.552;13.204;2023-05-02T04:09:05;17.20;55.70
25906;DHT22;13713;52.552;13.204;2023-05-02T04:11:53;17.30;55.70
25906;DHT22;13713;52.552;13.204;2023-05-02T04:14:19;17.30;55.70
25906;DHT22;13713;52.552;13.204;2023-05-02T04:16:49;17.30;55.70
25906;DHT22;13713;52.552;13.204;2023-05-02T04:19:19;17.30;55.70
25906;DHT22;13713;52.552;13.204;2023-05-02T04:21:45;17.30;55.70
25906;DHT22;13713;52.552;13.204;2023-05-02T04:24:12;17.40;55.80
25906;DHT22;13713;52.552;13.204;2023-05-02T04:26:38;17.30;56.40
25906;DHT22;13713;52.552;13.204;2023-05-02T04:29:07;17.30;55.80
25906;DHT22;13713;52.552;13.204;2023-05-02T04:31:33;17.30;55.80
25906;DHT22;13713;52.552;13.204;2023-05-02T04:33:59;17.30;55.80
25906;DHT22;13713;52.552;13.204;2023-05-02T04:36:29;17.30;55.80
25906;DHT22;13713;52.552;13.204;2023-05-02T04:38:55;17.40;55.80
25906;DHT22;13713;52.552;13.204;2023-05-02T04:41:21;17.30;55.80
25906;DHT22;13713;52.552;13.204;2023-05-02T04:43:53;17.40;55.80
25906;DHT22;13713;52.552;13.204;2023-05-02T04:46:19;17.40;55.90
25906;DHT22;13713;52.552;13.204;2023-05-02T04:48:45;17.40;55.80
25906;DHT22;13713;52.552;13.204;2023-05-02T04:51:11;17.40;55.90
25906;DHT22;13713;52.552;13.204;2023-05-02T04:53:37;17.40;55.90
25906;DHT22;13713;52.552;13.204;2023-05-02T04:56:03;17.40;55.90
25906;DHT22;13713;52.552;13.204;2023-05-02T04:58:33;17.40;55.90
25906;DHT22;13713;52.552;13.204;2023-05-02T05:01:04;17.40;55.90
25906;DHT22;13713;52.552;13.204;2023-05-02T05:03:30;17.50;55.90
25906;DHT22;13713;52.552;13.204;2023-05-02T05:05:58;17.50;55.90
25906;DHT22;13713;52.552;13.204;2023-05-02T05:08:24;17.50;56.50
25906;DHT22;13713;52.552;13.204;2023-05-02T05:10:50;17.50;55.90
25906;DHT22;13713;52.552;13.204;2023-05-02T05:13:17;17.50;55.90
25906;DHT22;13713;52.552;13.204;2023-05-02T05:15:46;17.50;55.90
25906;DHT22;13713;52.552;13.204;2023-05-02T05:18:13;17.50;55.90
25906;DHT22;13713;52.552;13.204;2023-05-02T05:20:39;17.60;56.00
25906;DHT22;13713;52.552;13.204;2023-05-02T05:23:06;17.60;56.00
25906;DHT22;13713;52.552;13.204;2023-05-02T05:25:31;17.60;56.00
25906;DHT22;13713;52.552;13.204;2023-05-02T05:27:59;17.60;56.00
25906;DHT22;13713;52.552;13.204;2023-05-02T05:30:25;17.60;56.00
25906;DHT22;13713;52.552;13.204;2023-05-02T05:32:51;17.60;56.00
25906;DHT22;13713;52.552;13.204;2023-05-02T05:35:17;17.60;55.90
25906;DHT22;13713;52.552;13.204;2023-05-02T05:37:43;17.70;55.90
25906;DHT22;13713;52.552;13.204;2023-05-02T05:40:11;17.70;55.90
25906;DHT22;13713;52.552;13.204;2023-05-02T05:42:39;17.80;56.00
25906;DHT22;13713;52.552;13.204;2023-05-02T05:45:10;17.80;55.90
25906;DHT22;13713;52.552;13.204;2023-05-02T05:47:37;17.80;55.90
25906;DHT22;13713;52.552;13.204;2023-05-02T05:50:03;17.90;55.90
25906;DHT22;13713;52.552;13.204;2023-05-02T05:52:29;17.90;55.80
25906;DHT22;13713;52.552;13.204;2023-05-02T05:54:58;18.00;55.80
25906;DHT22;13713;52.552;13.204;2023-05-02T05:57:25;18.10;55.90
25906;DHT22;13713;52.552;13.204;2023-05-02T05:59:52;18.10;55.80
25906;DHT22;13713;52.552;13.204;2023-05-02T06:02:19;18.20;55.80
25906;DHT22;13713;52.552;13.204;2023-05-02T06:04:45;18.20;55.70
25906;DHT22;13713;52.552;13.204;2023-05-02T06:07:11;18.40;55.80
25906;DHT22;13713;52.552;13.204;2023-05-02T06:09:37;18.40;55.70
25906;DHT22;13713;52.552;13.204;2023-05-02T06:12:03;18.50;55.70
25906;DHT22;13713;52.552;13.204;2023-05-02T06:14:31;18.60;55.60
25906;DHT22;13713;52.552;13.204;2023-05-02T06:17:00;18.70;55.60
25906;DHT22;13713;52.552;13.204;2023-05-02T06:19:27;18.70;55.50
25906;DHT22;13713;52.552;13.204;2023-05-02T06:21:52;18.70;55.50
25906;DHT22;13713;52.552;13.204;2023-05-02T06:24:18;18.60;55.50
25906;DHT22;13713;52.552;13.204;2023-05-02T06:26:44;18.80;55.60
25906;DHT22;13713;52.552;13.204;2023-05-02T06:29:10;18.80;55.70
25906;DHT22;13713;52.552;13.204;2023-05-02T06:31:36;18.80;56.30
25906;DHT22;13713;52.552;13.204;2023-05-02T06:34:01;18.80;55.70
25906;DHT22;13713;52.552;13.204;2023-05-02T06:36:28;18.90;55.80
25906;DHT22;13713;52.552;13.204;2023-05-02T06:38:54;18.90;55.70
25906;DHT22;13713;52.552;13.204;2023-05-02T06:41:20;18.90;55.80
25906;DHT22;13713;52.552;13.204;2023-05-02T06:43:46;19.00;55.80
25906;DHT22;13713;52.552;13.204;2023-05-02T06:46:12;19.10;55.80
25906;DHT22;13713;52.552;13.204;2023-05-02T06:48:37;19.10;55.90
25906;DHT22;13713;52.552;13.204;2023-05-02T06:51:03;19.00;55.80
25906;DHT22;13713;52.552;13.204;2023-05-02T06:53:30;19.10;55.90
25906;DHT22;13713;52.552;13.204;2023-05-02T06:55:56;19.10;55.90
25906;DHT22;13713;52.552;13.204;2023-05-02T06:58:21;19.10;56.00
25906;DHT22;13713;52.552;13.204;2023-05-02T07:00:47;19.10;55.90
25906;DHT22;13713;52.552;13.204;2023-05-02T07:03:13;19.10;56.00
25906;DHT22;13713;52.552;13.204;2023-05-02T07:05:39;19.20;56.10
25906;DHT22;13713;52.552;13.204;2023-05-02T07:08:05;19.10;56.10
25906;DHT22;13713;52.552;13.204;2023-05-02T07:10:31;19.10;56.10
25906;DHT22;13713;52.552;13.204;2023-05-02T07:12:57;19.20;56.20
25906;DHT22;13713;52.552;13.204;2023-05-02T07:15:22;19.20;56.20
25906;DHT22;13713;52.552;13.204;2023-05-02T07:17:48;19.20;56.30
25906;DHT22;13713;52.552;13.204;2023-05-02T07:20:14;19.20;56.30
25906;DHT22;13713;52.552;13.204;2023-05-02T07:22:41;19.20;56.30
25906;DHT22;13713;52.552;13.204;2023-05-02T07:25:07;19.10;56.30
25906;DHT22;13713;52.552;13.204;2023-05-02T07:27:32;19.20;56.40
25906;DHT22;13713;52.552;13.204;2023-05-02T07:29:58;19.20;56.50
25906;DHT22;13713;52.552;13.204;2023-05-02T07:32:24;19.30;56.50
25906;DHT22;13713;52.552;13.204;2023-05-02T07:34:51;19.30;56.60
25906;DHT22;13713;52.552;13.204;2023-05-02T07:37:19;19.30;56.60
25906;DHT22;13713;52.552;13.204;2023-05-02T07:39:45;19.20;56.60
25906;DHT22;13713;52.552;13.204;2023-05-02T07:42:11;19.30;56.70
25906;DHT22;13713;52.552;13.204;2023-05-02T07:44:37;19.30;56.70
25906;DHT22;13713;52.552;13.204;2023-05-02T07:47:03;19.30;56.80
25906;DHT22;13713;52.552;13.204;2023-05-02T07:49:28;19.30;56.80
25906;DHT22;13713;52.552;13.204;2023-05-02T07:51:55;19.30;56.90
25906;DHT22;13713;52.552;13.204;2023-05-02T07:54:21;19.40;57.00
25906;DHT22;13713;52.552;13.204;2023-05-02T07:56:47;19.30;57.00
25906;DHT22;13713;52.552;13.204;2023-05-02T07:59:13;19.40;57.20
25906;DHT22;13713;52.552;13.204;2023-05-02T08:01:40;19.40;57.30
25906;DHT22;13713;52.552;13.204;2023-05-02T08:04:06;19.40;57.20
25906;DHT22;13713;52.552;13.204;2023-05-02T08:06:32;19.50;57.30
25906;DHT22;13713;52.552;13.204;2023-05-02T08:08:58;19.50;57.30
25906;DHT22;13713;52.552;13.204;2023-05-02T08:11:24;19.50;57.30
25906;DHT22;13713;52.552;13.204;2023-05-02T08:13:53;19.60;57.40
25906;DHT22;13713;52.552;13.204;2023-05-02T08:16:19;19.50;57.50
25906;DHT22;13713;52.552;13.204;2023-05-02T08:18:45;19.50;57.50
25906;DHT22;13713;52.552;13.204;2023-05-02T08:21:11;19.50;57.60
25906;DHT22;13713;52.552;13.204;2023-05-02T08:23:37;19.60;57.70
25906;DHT22;13713;52.552;13.204;2023-05-02T08:26:03;19.50;57.70
25906;DHT22;13713;52.552;13.204;2023-05-02T08:28:28;19.60;57.80
25906;DHT22;13713;52.552;13.204;2023-05-02T08:30:55;19.60;57.80
25906;DHT22;13713;52.552;13.204;2023-05-02T08:33:21;19.60;57.90
25906;DHT22;13713;52.552;13.204;2023-05-02T08:35:47;19.60;57.90
25906;DHT22;13713;52.552;13.204;2023-05-02T08:38:12;19.70;58.10
25906;DHT22;13713;52.552;13.204;2023-05-02T08:40:38;19.70;58.30
25906;DHT22;13713;52.552;13.204;2023-05-02T08:43:04;19.70;58.20
25906;DHT22;13713;52.552;13.204;2023-05-02T08:45:41;19.70;58.30
25906;DHT22;13713;52.552;13.204;2023-05-02T08:48:09;19.70;58.30
25906;DHT22;13713;52.552;13.204;2023-05-02T08:50:41;19.70;58.30
25906;DHT22;13713;52.552;13.204;2023-05-02T08:53:09;19.70;58.30
25906;DHT22;13713;52.552;13.204;2023-05-02T08:55:37;19.70;58.40
25906;DHT22;13713;52.552;13.204;2023-05-02T08:58:07;19.70;58.40
25906;DHT22;13713;52.552;13.204;2023-05-02T09:00:38;19.70;58.40
25906;DHT22;13713;52.552;13.204;2023-05-02T09:05:42;19.70;58.40
25906;DHT22;13713;52.552;13.204;2023-05-02T09:08:09;19.80;58.50
25906;DHT22;13713;52.552;13.204;2023-05-02T09:10:35;19.70;58.50
25906;DHT22;13713;52.552;13.204;2023-05-02T09:18:35;19.80;58.60
25906;DHT22;13713;52.552;13.204;2023-05-02T09:21:15;19.80;58.70
25906;DHT22;13713;52.552;13.204;2023-05-02T09:28:49;19.80;58.90
25906;DHT22;13713;52.552;13.204;2023-05-02T09:31:19;19.80;58.90
25906;DHT22;13713;52.552;13.204;2023-05-02T09:33:46;19.80;59.00
25906;DHT22;13713;52.552;13.204;2023-05-02T09:36:14;19.80;59.00
25906;DHT22;13713;52.552;13.204;2023-05-02T09:38:45;19.80;59.10
25906;DHT22;13713;52.552;13.204;2023-05-02T09:41:11;19.80;59.10
25906;DHT22;13713;52.552;13.204;2023-05-02T09:43:37;19.80;59.20
25906;DHT22;13713;52.552;13.204;2023-05-02T09:46:08;19.80;59.20
25906;DHT22;13713;52.552;13.204;2023-05-02T09:48:54;19.80;59.20
25906;DHT22;13713;52.552;13.204;2023-05-02T09:51:22;19.80;59.30
25906;DHT22;13713;52.552;13.204;2023-05-02T09:53:48;19.90;59.40
25906;DHT22;13713;52.552;13.204;2023-05-02T09:56:14;19.80;59.40
25906;DHT22;13713;52.552;13.204;2023-05-02T09:58:40;19.90;59.50
25906;DHT22;13713;52.552;13.204;2023-05-02T10:01:05;19.80;59.50
25906;DHT22;13713;52.552;13.204;2023-05-02T10:03:36;19.80;59.50
25906;DHT22;13713;52.552;13.204;2023-05-02T10:06:02;19.90;59.60
25906;DHT22;13713;52.552;13.204;2023-05-02T10:08:31;19.90;59.70
25906;DHT22;13713;52.552;13.204;2023-05-02T10:10:59;19.90;59.70
25906;DHT22;13713;52.552;13.204;2023-05-02T10:13:26;19.90;59.80
25906;DHT22;13713;52.552;13.204;2023-05-02T10:15:57;19.90;59.80
25906;DHT22;13713;52.552;13.204;2023-05-02T10:21:09;19.90;59.90
25906;DHT22;13713;52.552;13.204;2023-05-02T10:23:35;19.90;59.90
25906;DHT22;13713;52.552;13.204;2023-05-02T10:26:02;19.90;59.90
25906;DHT22;13713;52.552;13.204;2023-05-02T10:28:29;19.90;60.00
25906;DHT22;13713;52.552;13.204;2023-05-02T10:30:55;19.90;60.00
25906;DHT22;13713;52.552;13.204;2023-05-02T10:33:22;19.90;60.00
25906;DHT22;13713;52.552;13.204;2023-05-02T10:35:48;19.90;60.10
25906;DHT22;13713;52.552;13.204;2023-05-02T10:38:16;19.90;60.10
25906;DHT22;13713;52.552;13.204;2023-05-02T10:40:56;20.00;60.20
25906;DHT22;13713;52.552;13.204;2023-05-02T10:43:25;20.00;60.30
25906;DHT22;13713;52.552;13.204;2023-05-02T10:45:52;20.00;60.30
25906;DHT22;13713;52.552;13.204;2023-05-02T10:48:21;20.00;60.30
25906;DHT22;13713;52.552;13.204;2023-05-02T10:50:49;20.00;60.40
25906;DHT22;13713;52.552;13.204;2023-05-02T10:58:35;20.00;60.50
25906;DHT22;13713;52.552;13.204;2023-05-02T11:04:01;20.10;60.60
25906;DHT22;13713;52.552;13.204;2023-05-02T11:11:44;20.10;60.80
25906;DHT22;13713;52.552;13.204;2023-05-02T11:14:11;20.20;60.90
25906;DHT22;13713;52.552;13.204;2023-05-02T11:22:32;20.20;61.00
25906;DHT22;13713;52.552;13.204;2023-05-02T11:24:58;20.20;61.10
25906;DHT22;13713;52.552;13.204;2023-05-02T11:29:59;20.20;61.20
25906;DHT22;13713;52.552;13.204;2023-05-02T11:35:25;20.30;61.40
25906;DHT22;13713;52.552;13.204;2023-05-02T11:38:01;20.30;61.40
25906;DHT22;13713;52.552;13.204;2023-05-02T11:40:28;20.30;61.70
25906;DHT22;13713;52.552;13.204;2023-05-02T11:42:55;20.30;61.60
25906;DHT22;13713;52.552;13.204;2023-05-02T11:45:21;20.30;61.70
25906;DHT22;13713;52.552;13.204;2023-05-02T11:47:49;20.40;61.80
25906;DHT22;13713;52.552;13.204;2023-05-02T11:50:16;20.30;61.70
25906;DHT22;13713;52.552;13.204;2023-05-02T11:52:43;20.30;61.80
25906;DHT22;13713;52.552;13.204;2023-05-02T11:55:11;20.40;62.00
25906;DHT22;13713;52.552;13.204;2023-05-02T11:57:38;20.30;62.00
25906;DHT22;13713;52.552;13.204;2023-05-02T12:00:04;20.50;62.10
25906;DHT22;13713;52.552;13.204;2023-05-02T12:02:39;20.40;62.10
25906;DHT22;13713;52.552;13.204;2023-05-02T12:05:06;20.40;62.10
25906;DHT22;13713;52.552;13.204;2023-05-02T12:07:43;20.40;62.10
25906;DHT22;13713;52.552;13.204;2023-05-02T12:10:15;20.50;62.20
25906;DHT22;13713;52.552;13.204;2023-05-02T12:12:43;20.50;62.30
25906;DHT22;13713;52.552;13.204;2023-05-02T12:15:10;20.50;62.40
25906;DHT22;13713;52.552;13.204;2023-05-02T12:17:46;20.50;62.50
25906;DHT22;13713;52.552;13.204;2023-05-02T12:20:13;20.50;62.50
25906;DHT22;13713;52.552;13.204;2023-05-02T12:22:40;20.50;62.50
25906;DHT22;13713;52.552;13.204;2023-05-02T12:25:06;20.50;62.60
25906;DHT22;13713;52.552;13.204;2023-05-02T12:27:32;20.60;62.70
25906;DHT22;13713;52.552;13.204;2023-05-02T12:29:59;20.60;62.70
25906;DHT22;13713;52.552;13.204;2023-05-02T12:32:33;20.60;62.80
25906;DHT22;13713;52.552;13.204;2023-05-02T12:35:00;20.60;62.90
25906;DHT22;13713;52.552;13.204;2023-05-02T12:37:26;20.60;63.00
25906;DHT22;13713;52.552;13.204;2023-05-02T12:39:53;20.60;63.00
25906;DHT22;13713;52.552;13.204;2023-05-02T12:42:22;20.60;63.00
25906;DHT22;13713;52.552;13.204;2023-05-02T12:44:49;20.60;63.00
25906;DHT22;13713;52.552;13.204;2023-05-02T12:47:17;20.60;63.10
25906;DHT22;13713;52.552;13.204;2023-05-02T12:49:59;20.60;63.20
25906;DHT22;13713;52.552;13.204;2023-05-02T12:52:50;20.70;63.20
25906;DHT22;13713;52.552;13.204;2023-05-02T12:55:23;20.70;63.30
25906;DHT22;13713;52.552;13.204;2023-05-02T12:58:10;20.70;63.30
25906;DHT22;13713;52.552;13.204;2023-05-02T13:00:41;20.70;63.40
25906;DHT22;13713;52.552;13.204;2023-05-02T13:03:08;20.70;63.40
25906;DHT22;13713;52.552;13.204;2023-05-02T13:05:35;20.70;63.50
25906;DHT22;13713;52.552;13.204;2023-05-02T13:08:01;20.70;63.50
25906;DHT22;13713;52.552;13.204;2023-05-02T13:10:27;20.70;63.50
25906;DHT22;13713;52.552;13.204;2023-05-02T13:12:53;20.80;63.60
25906;DHT22;13713;52.552;13.204;2023-05-02T13:15:20;20.80;63.70
25906;DHT22;13713;52.552;13.204;2023-05-02T13:17:46;20.80;63.90
25906;DHT22;13713;52.552;13.204;2023-05-02T13:20:12;20.80;63.80
25906;DHT22;13713;52.552;13.204;2023-05-02T13:22:38;20.80;63.80
25906;DHT22;13713;52.552;13.204;2023-05-02T13:25:04;20.80;63.90
25906;DHT22;13713;52.552;13.204;2023-05-02T13:27:31;20.80;63.90
25906;DHT22;13713;52.552;13.204;2023-05-02T13:29:59;20.80;64.00
25906;DHT22;13713;52.552;13.204;2023-05-02T13:32:26;20.80;64.10
25906;DHT22;13713;52.552;13.204;2023-05-02T13:34:52;20.80;64.10
25906;DHT22;13713;52.552;13.204;2023-05-02T13:37:18;20.80;64.20
25906;DHT22;13713;52.552;13.204;2023-05-02T13:39:44;20.80;64.20
25906;DHT22;13713;52.552;13.204;2023-05-02T13:42:10;20.80;64.30
25906;DHT22;13713;52.552;13.204;2023-05-02T13:44:36;20.80;64.30
25906;DHT22;13713;52.552;13.204;2023-05-02T13:47:02;20.80;64.40
25906;DHT22;13713;52.552;13.204;2023-05-02T13:49:28;20.90;64.50
25906;DHT22;13713;52.552;13.204;2023-05-02T13:51:54;20.80;64.50
25906;DHT22;13713;52.552;13.204;2023-05-02T13:54:20;20.90;64.60
25906;DHT22;13713;52.552;13.204;2023-05-02T13:56:46;20.90;64.60
25906;DHT22;13713;52.552;13.204;2023-05-02T13:59:11;20.90;64.60
25906;DHT22;13713;52.552;13.204;2023-05-02T14:01:37;20.90;64.80
25906;DHT22;13713;52.552;13.204;2023-05-02T14:04:05;20.90;64.80
25906;DHT22;13713;52.552;13.204;2023-05-02T14:06:33;20.90;64.80
25906;DHT22;13713;52.552;13.204;2023-05-02T14:08:59;20.90;64.90
25906;DHT22;13713;52.552;13.204;2023-05-02T14:11:25;20.90;64.90
25906;DHT22;13713;52.552;13.204;2023-05-02T14:13:51;20.90;64.90
25906;DHT22;13713;52.552;13.204;2023-05-02T14:16:17;20.90;65.00
25906;DHT22;13713;52.552;13.204;2023-05-02T14:18:42;20.90;65.00
25906;DHT22;13713;52.552;13.204;2023-05-02T14:21:10;20.90;65.00
25906;DHT22;13713;52.552;13.204;2023-05-02T14:23:36;20.90;65.20
25906;DHT22;13713;52.552;13.204;2023-05-02T14:26:01;20.90;65.10
25906;DHT22;13713;52.552;13.204;2023-05-02T14:28:28;20.90;65.20
25906;DHT22;13713;52.552;13.204;2023-05-02T14:30:54;20.90;65.30
25906;DHT22;13713;52.552;13.204;2023-05-02T14:33:19;20.90;65.40
25906;DHT22;13713;52.552;13.204;2023-05-02T14:35:45;20.90;65.40
25906;DHT22;13713;52.552;13.204;2023-05-02T14:38:11;20.90;65.50
25906;DHT22;13713;52.552;13.204;2023-05-02T14:40:37;20.90;65.50
25906;DHT22;13713;52.552;13.204;2023-05-02T14:43:02;20.90;65.60
25906;DHT22;13713;52.552;13.204;2023-05-02T14:45:29;20.90;65.60
25906;DHT22;13713;52.552;13.204;2023-05-02T14:47:55;20.90;65.60
25906;DHT22;13713;52.552;13.204;2023-05-02T14:50:22;20.90;65.80
25906;DHT22;13713;52.552;13.204;2023-05-02T14:52:47;20.80;65.70
25906;DHT22;13713;52.552;13.204;2023-05-02T14:55:13;20.80;65.70
25906;DHT22;13713;52.552;13.204;2023-05-02T14:57:39;20.80;65.80
25906;DHT22;13713;52.552;13.204;2023-05-02T15:00:05;20.80;65.80
25906;DHT22;13713;52.552;13.204;2023-05-02T15:02:37;20.80;65.80
25906;DHT22;13713;52.552;13.204;2023-05-02T15:05:03;20.80;66.00
25906;DHT22;13713;52.552;13.204;2023-05-02T15:07:30;20.80;66.00
25906;DHT22;13713;52.552;13.204;2023-05-02T15:09:55;20.80;66.00
25906;DHT22;13713;52.552;13.204;2023-05-02T15:12:21;20.80;66.00
25906;DHT22;13713;52.552;13.204;2023-05-02T15:14:47;20.80;66.00
25906;DHT22;13713;52.552;13.204;2023-05-02T15:17:12;20.80;66.10
25906;DHT22;13713;52.552;13.204;2023-05-02T15:19:38;20.80;66.10
25906;DHT22;13713;52.552;13.204;2023-05-02T15:22:04;20.70;66.10
25906;DHT22;13713;52.552;13.204;2023-05-02T15:24:29;20.70;66.10
25906;DHT22;13713;52.552;13.204;2023-05-02T15:26:55;20.70;66.10
25906;DHT22;13713;52.552;13.204;2023-05-02T15:29:21;20.70;66.10
25906;DHT22;13713;52.552;13.204;2023-05-02T15:31:47;20.70;66.10
25906;DHT22;13713;52.552;13.204;2023-05-02T15:34:12;20.70;66.10
25906;DHT22;13713;52.552;13.204;2023-05-02T15:36:38;20.60;66.20
25906;DHT22;13713;52.552;13.204;2023-05-02T15:39:05;20.60;66.00
25906;DHT22;13713;52.552;13.204;2023-05-02T15:41:32;20.60;66.10
25906;DHT22;13713;52.552;13.204;2023-05-02T15:43:57;20.60;66.00
25906;DHT22;13713;52.552;13.204;2023-05-02T15:46:23;20.60;66.10
25906;DHT22;13713;52.552;13.204;2023-05-02T15:48:49;20.60;66.10
25906;DHT22;13713;52.552;13.204;2023-05-02T15:51:15;20.60;66.10
25906;DHT22;13713;52.552;13.204;2023-05-02T15:53:41;20.60;66.10
25906;DHT22;13713;52.552;13.204;2023-05-02T15:56:12;20.60;66.10
25906;DHT22;13713;52.552;13.204;2023-05-02T15:58:38;20.60;66.20
25906;DHT22;13713;52.552;13.204;2023-05-02T16:01:04;20.60;66.20
25906;DHT22;13713;52.552;13.204;2023-05-02T16:03:30;20.60;67.00
25906;DHT22;13713;52.552;13.204;2023-05-02T16:05:57;20.60;66.20
25906;DHT22;13713;52.552;13.204;2023-05-02T16:08:27;20.50;66.10
25906;DHT22;13713;52.552;13.204;2023-05-02T16:10:53;20.50;66.20
25906;DHT22;13713;52.552;13.204;2023-05-02T16:13:19;20.50;66.20
25906;DHT22;13713;52.552;13.204;2023-05-02T16:15:45;20.50;66.30
25906;DHT22;13713;52.552;13.204;2023-05-02T16:18:16;20.50;66.30
25906;DHT22;13713;52.552;13.204;2023-05-02T16:20:42;20.50;66.30
25906;DHT22;13713;52.552;13.204;2023-05-02T16:23:07;20.50;66.40